Time;durP1;ratioP1;P1;durP2;ratioP2;P2;SDS_P1;SDS_P2;PMS_P1;PMS_P2;Temp;Humidity;BMP_temperature;BMP_pressure;BME280_temperature;BME280_humidity;BME280_pressure;Samples;Min_cycle;Max_cycle;Signal;HPM_P1;HPM_P2
2021/10/02 00:36:35;;;;;;;;;6.50;6.50;;;;;15.77;70.79;100694.72;5061029;28;45789;-77
2021/10/02 00:46:56;;;;;;;;;4.25;4.00;;;;;15.67;70.92;100698.34;5052059;28;45952;-78
2021/10/02 00:49:23;;;;;;;;;8.00;7.25;;;;;15.66;71.05;100696.66;5043445;28;45647;-81
2021/10/02 00:51:49;;;;;;;;;6.75;5.25;;;;;15.64;70.87;100690.72;5049905;28;48198;-81
2021/10/02 00:54:14;;;;;;;;;5.50;5.00;;;;;15.64;70.96;100694.19;5052827;28;45485;-79
2021/10/02 00:56:40;;;;;;;;;7.00;5.75;;;;;15.62;71.06;100692.66;5053825;28;45707;-82
2021/10/02 00:59:05;;;;;;;;;6.25;6.00;;;;;15.60;71.05;100687.50;5053344;28;46454;-81
2021/10/02 01:01:43;;;;;;;;;6.00;5.25;;;;;15.59;71.08;100683.22;5054316;28;45612;-79
2021/10/02 01:04:47;;;;;;;;;6.00;5.00;;;;;15.58;70.94;100685.97;5051131;28;45809;-79
2021/10/02 01:07:34;;;;;;;;;7.25;6.00;;;;;15.57;71.05;100682.50;5043174;28;45680;-79
2021/10/02 01:10:15;;;;;;;;;7.00;6.00;;;;;15.56;71.02;100688.75;5049606;28;48444;-78
2021/10/02 01:12:57;;;;;;;;;4.25;3.75;;;;;15.55;71.20;100686.28;5049876;28;46355;-78
2021/10/02 01:15:36;;;;;;;;;5.00;5.00;;;;;15.56;70.96;100680.00;5054353;28;45822;-78
2021/10/02 01:18:08;;;;;;;;;5.50;4.50;;;;;15.55;71.07;100687.06;5053568;28;46239;-77
2021/10/02 01:21:03;;;;;;;;;6.00;4.50;;;;;15.56;71.07;100695.84;5050059;28;47598;-78
2021/10/02 01:23:47;;;;;;;;;6.25;6.25;;;;;15.55;70.98;100695.00;5050626;28;46084;-79
2021/10/02 01:26:30;;;;;;;;;7.25;5.00;;;;;15.53;71.05;100689.88;5053203;28;45964;-78
2021/10/02 01:28:59;;;;;;;;;5.00;4.00;;;;;15.53;71.07;100671.41;5053004;28;45803;-79
2021/10/02 01:31:42;;;;;;;;;6.00;5.50;;;;;15.55;71.04;100671.22;5053548;28;46752;-80
2021/10/02 01:34:20;;;;;;;;;3.75;3.75;;;;;15.52;70.81;100663.59;5057720;28;45987;-79
2021/10/02 01:37:00;;;;;;;;;5.50;5.00;;;;;15.58;71.15;100678.91;5056333;28;45733;-77
2021/10/02 01:47:50;;;;;;;;;4.00;4.00;;;;;15.59;70.99;100648.03;5053789;28;45854;-78
2021/10/02 01:50:19;;;;;;;;;5.25;5.25;;;;;15.61;71.13;100649.56;5054921;28;45757;-78
2021/10/02 01:52:45;;;;;;;;;5.00;5.00;;;;;15.60;71.05;100647.88;5055391;28;46554;-79
2021/10/02 01:55:12;;;;;;;;;5.00;4.00;;;;;15.61;71.03;100639.00;5058842;28;46247;-83
2021/10/02 01:57:45;;;;;;;;;8.00;7.00;;;;;15.62;71.14;100640.66;5050247;28;45737;-78
2021/10/02 02:00:12;;;;;;;;;14.50;11.75;;;;;15.50;71.17;100621.44;5062477;28;45722;-81
2021/10/02 02:02:42;;;;;;;;;10.50;9.00;;;;;15.65;71.03;100634.28;5049651;28;45698;-82
2021/10/02 02:05:13;;;;;;;;;9.75;9.75;;;;;15.66;71.05;100634.13;5056437;28;45872;-77
2021/10/02 02:07:45;;;;;;;;;9.00;8.00;;;;;15.67;71.06;100621.75;5059269;28;46102;-78
2021/10/02 02:10:12;;;;;;;;;7.00;5.75;;;;;15.67;70.97;100619.09;5054879;28;45936;-78
2021/10/02 02:12:42;;;;;;;;;7.75;6.50;;;;;15.50;70.90;100597.69;5057142;28;45710;-77
2021/10/02 02:15:13;;;;;;;;;9.25;8.50;;;;;15.68;70.81;100624.25;5055332;28;46444;-78
2021/10/02 02:17:45;;;;;;;;;7.50;6.50;;;;;15.73;70.92;100619.38;5056883;28;45831;-78
2021/10/02 02:20:15;;;;;;;;;4.00;4.00;;;;;15.74;71.02;100610.47;5056652;28;46005;-77
2021/10/02 02:22:42;;;;;;;;;5.75;5.00;;;;;15.75;71.01;100622.72;5056771;28;46029;-77
2021/10/02 02:25:07;;;;;;;;;6.75;5.25;;;;;15.72;70.99;100617.69;5058730;28;46300;-78
2021/10/02 02:27:34;;;;;;;;;5.00;5.00;;;;;15.73;70.98;100605.34;5046547;28;45594;-78
2021/10/02 02:30:01;;;;;;;;;6.50;6.00;;;;;15.62;71.20;100573.78;5057530;28;45725;-77
2021/10/02 02:32:27;;;;;;;;;5.00;5.00;;;;;15.72;71.14;100604.50;5052118;28;45769;-78
2021/10/02 02:34:52;;;;;;;;;4.50;4.50;;;;;15.72;70.97;100598.38;5056646;28;45648;-77
2021/10/02 02:37:18;;;;;;;;;7.00;6.00;;;;;15.65;70.99;100587.56;5055183;28;46139;-77
2021/10/02 02:39:43;;;;;;;;;7.50;6.75;;;;;15.63;71.27;100576.31;5055564;28;45730;-77
2021/10/02 02:42:11;;;;;;;;;4.50;4.00;;;;;15.58;71.17;100562.69;5056772;28;45913;-79
2021/10/02 02:44:37;;;;;;;;;4.00;4.00;;;;;15.66;70.84;100557.53;5063784;28;47164;-77
2021/10/02 02:47:07;;;;;;;;;7.50;6.25;;;;;15.71;71.02;100579.06;5069784;28;45691;-80
2021/10/02 02:50:07;;;;;;;;;5.25;5.00;;;;;15.70;71.17;100582.69;5051188;28;45217;-83
2021/10/02 02:52:33;;;;;;;;;6.00;5.00;;;;;15.68;71.06;100575.88;5070644;28;46944;-78
2021/10/02 02:55:07;;;;;;;;;5.00;5.00;;;;;15.64;70.94;100566.56;5072156;28;46028;-81
2021/10/02 02:57:46;;;;;;;;;4.50;3.00;;;;;15.63;71.22;100564.91;5064859;28;45739;-82
2021/10/02 03:00:17;;;;;;;;;5.00;5.00;;;;;15.57;71.16;100545.19;5066167;28;45214;-77
2021/10/02 03:02:54;;;;;;;;;4.75;4.75;;;;;15.55;70.81;100541.03;5061468;28;47036;-78
2021/10/02 03:05:24;;;;;;;;;4.75;4.00;;;;;15.67;71.18;100556.56;5055340;28;45585;-78
2021/10/02 03:08:01;;;;;;;;;4.00;4.00;;;;;15.64;71.19;100556.84;5062326;28;45817;-77
2021/10/02 03:10:29;;;;;;;;;5.50;5.00;;;;;15.65;71.03;100562.97;5058226;28;45419;-80
2021/10/02 03:12:57;;;;;;;;;4.75;4.75;;;;;15.61;71.18;100554.47;5040282;28;46677;-79
2021/10/02 03:15:24;;;;;;;;;6.50;6.00;;;;;15.62;71.25;100526.25;5056595;28;46752;-79
2021/10/02 03:17:51;;;;;;;;;6.25;6.25;;;;;15.66;70.98;100528.47;5058066;28;45726;-79
2021/10/02 03:20:18;;;;;;;;;5.00;4.75;;;;;15.62;71.26;100535.03;5058067;28;45482;-82
2021/10/02 03:22:47;;;;;;;;;8.50;7.25;;;;;15.61;71.24;100549.19;5050925;28;45976;-79
2021/10/02 03:25:13;;;;;;;;;7.25;7.25;;;;;15.64;71.18;100556.84;5048290;28;46611;-80
2021/10/02 03:27:39;;;;;;;;;10.25;9.00;;;;;15.37;71.02;100522.41;5054820;28;45675;-77
2021/10/02 03:30:08;;;;;;;;;8.50;8.25;;;;;15.63;71.06;100556.97;5058130;28;45660;-78
2021/10/02 03:32:34;;;;;;;;;8.00;8.00;;;;;15.57;71.24;100534.63;5059840;27;45928;-77
2021/10/02 03:34:59;;;;;;;;;10.00;10.00;;;;;15.50;71.27;100507.91;5054481;28;45662;-77
2021/10/02 03:37:28;;;;;;;;;6.00;6.00;;;;;15.56;71.61;100525.03;5055657;28;45612;-78
2021/10/02 03:39:54;;;;;;;;;8.25;8.25;;;;;15.54;71.22;100513.78;5055644;28;45683;-78
2021/10/02 03:42:21;;;;;;;;;11.00;9.50;;;;;15.53;71.01;100515.59;5050146;28;47538;-76
2021/10/02 03:44:49;;;;;;;;;9.00;8.25;;;;;15.53;71.25;100517.41;5044555;28;47091;-78
2021/10/02 03:47:16;;;;;;;;;10.00;8.25;;;;;15.47;71.24;100510.84;5052208;28;45565;-78
2021/10/02 03:49:42;;;;;;;;;11.50;9.75;;;;;15.47;71.11;100502.94;5055141;28;45692;-78
2021/10/02 03:52:09;;;;;;;;;9.00;8.00;;;;;15.51;71.28;100509.59;5060567;28;46442;-77
2021/10/02 03:54:35;;;;;;;;;7.00;7.00;;;;;15.49;71.64;100502.78;5058238;28;45707;-78
2021/10/02 03:57:01;;;;;;;;;8.00;7.00;;;;;15.47;71.45;100488.88;5051067;28;45794;-81
2021/10/02 03:59:28;;;;;;;;;6.75;6.75;;;;;15.47;71.49;100496.81;5050868;28;45798;-78
2021/10/02 04:01:54;;;;;;;;;7.50;7.00;;;;;15.45;71.39;100504.03;5044878;28;45636;-78
2021/10/02 04:04:22;;;;;;;;;7.25;6.00;;;;;15.47;71.55;100512.66;5061507;28;46096;-79
2021/10/02 04:06:52;;;;;;;;;7.75;7.50;;;;;15.38;71.53;100503.78;5065209;28;45788;-78
2021/10/02 04:09:18;;;;;;;;;8.75;7.50;;;;;15.42;71.52;100494.59;5067495;28;45544;-79
2021/10/02 04:11:44;;;;;;;;;8.75;7.75;;;;;15.46;71.70;100489.84;5068063;28;46738;-78
2021/10/02 04:14:10;;;;;;;;;7.50;7.25;;;;;15.40;71.50;100474.59;5062020;28;47018;-78
2021/10/02 04:16:36;;;;;;;;;8.25;7.75;;;;;15.45;71.72;100482.91;5065575;28;46212;-78
2021/10/02 04:19:02;;;;;;;;;9.00;8.75;;;;;15.42;71.72;100483.22;5062843;28;45161;-77
2021/10/02 04:21:28;;;;;;;;;10.50;9.00;;;;;15.47;71.80;100499.44;5061187;28;47044;-77
2021/10/02 04:23:54;;;;;;;;;9.00;9.00;;;;;15.46;71.89;100497.78;5056698;28;46426;-77
2021/10/02 04:26:21;;;;;;;;;11.75;11.00;;;;;15.42;71.73;100484.03;5059621;28;45746;-77
2021/10/02 04:28:47;;;;;;;;;15.25;10.75;;;;;15.43;71.80;100487.53;5055751;28;45882;-78
2021/10/02 04:31:15;;;;;;;;;14.00;10.00;;;;;15.50;71.91;100497.34;5060603;28;46411;-76
2021/10/02 04:33:41;;;;;;;;;8.50;7.75;;;;;15.47;71.81;100487.09;5059445;28;46936;-76
2021/10/02 04:36:06;;;;;;;;;13.25;11.50;;;;;15.51;71.88;100487.63;5060653;28;46090;-78
2021/10/02 04:38:32;;;;;;;;;12.25;11.00;;;;;15.47;71.94;100473.88;5058603;28;46118;-81
2021/10/02 04:40:57;;;;;;;;;12.50;12.25;;;;;15.56;71.77;100489.84;5057833;28;45671;-78
2021/10/02 04:43:24;;;;;;;;;13.50;11.75;;;;;15.57;71.92;100497.66;5056905;28;46175;-78
2021/10/02 04:45:49;;;;;;;;;11.50;11.50;;;;;15.30;72.22;100448.22;5055097;28;45778;-83
2021/10/02 04:48:15;;;;;;;;;11.75;10.00;;;;;15.59;72.34;100473.75;5067694;28;45038;-79
2021/10/02 04:50:41;;;;;;;;;12.75;11.00;;;;;15.56;71.88;100469.56;5066744;28;45585;-83
2021/10/02 04:53:06;;;;;;;;;14.75;13.25;;;;;15.49;72.10;100463.19;5072507;28;45563;-77
2021/10/02 04:55:32;;;;;;;;;12.00;10.50;;;;;15.62;72.14;100491.94;5068644;28;45393;-77
2021/10/02 04:57:58;;;;;;;;;13.25;12.00;;;;;15.52;71.97;100466.38;5074807;28;45612;-78
2021/10/02 05:00:25;;;;;;;;;44.50;36.00;;;;;15.65;71.81;100494.28;5074567;28;45717;-81
2021/10/02 05:02:50;;;;;;;;;20.75;18.00;;;;;15.64;72.09;100488.19;5072049;28;46046;-76
2021/10/02 05:05:16;;;;;;;;;15.25;11.75;;;;;15.66;72.08;100490.66;5070629;28;45935;-79
2021/10/02 05:07:42;;;;;;;;;21.75;20.00;;;;;15.61;72.17;100483.16;5074426;28;45162;-77
2021/10/02 05:10:08;;;;;;;;;14.25;11.25;;;;;15.66;72.07;100509.97;5073768;28;46357;-77
2021/10/02 05:12:33;;;;;;;;;7.50;7.50;;;;;15.67;71.93;100502.88;5075685;28;45868;-80
2021/10/02 05:14:59;;;;;;;;;10.75;10.00;;;;;15.50;72.06;100480.66;5111580;22;45744;-79
2021/10/02 05:17:24;;;;;;;;;11.75;10.00;;;;;15.58;71.83;100483.47;5067807;22;45753;-78
2021/10/02 05:19:51;;;;;;;;;79.50;69.00;;;;;15.66;71.95;100490.66;5095514;27;46220;-79
2021/10/02 05:22:17;;;;;;;;;68.75;53.75;;;;;15.59;72.27;100474.56;5097466;28;47266;-81
2021/10/02 05:24:55;;;;;;;;;68.25;53.25;;;;;15.66;72.41;100478.28;5095305;28;45285;-83
2021/10/02 05:27:20;;;;;;;;;32.00;28.00;;;;;15.67;72.15;100468.56;5076019;28;45712;-90
2021/10/02 05:29:46;;;;;;;;;54.75;45.00;;;;;15.69;72.12;100472.72;5092731;28;46355;-83
2021/10/02 05:32:13;;;;;;;;;41.25;34.00;;;;;15.26;72.07;100388.78;5082247;22;46355;-91
2021/10/02 05:34:39;;;;;;;;;28.00;27.25;;;;;15.66;72.20;100449.22;5088877;27;45487;-94
2021/10/02 05:37:04;;;;;;;;;23.00;21.00;;;;;15.69;71.89;100448.97;5081477;28;45020;-86
2021/10/02 05:39:30;;;;;;;;;17.75;14.75;;;;;15.72;72.07;100453.94;5078710;28;45740;-81
2021/10/02 05:41:59;;;;;;;;;22.75;19.00;;;;;15.71;72.18;100449.63;5084928;27;45642;-79
2021/10/02 05:44:24;;;;;;;;;44.00;36.75;;;;;15.74;71.93;100440.59;5086021;28;45931;-77
2021/10/02 05:46:50;;;;;;;;;25.25;25.00;;;;;15.71;72.06;100431.13;5094818;28;45550;-76
2021/10/02 05:49:15;;;;;;;;;50.50;40.75;;;;;15.53;72.24;100402.03;5100698;22;46285;-79
2021/10/02 05:51:40;;;;;;;;;11.25;11.00;;;;;15.75;72.16;100437.81;5069088;28;45653;-78
2021/10/02 05:54:08;;;;;;;;;20.25;19.00;;;;;15.75;72.24;100432.53;5081012;28;45595;-78
2021/10/02 05:56:33;;;;;;;;;16.25;14.00;;;;;15.74;72.22;100425.56;5051485;28;45279;-81
2021/10/02 05:58:59;;;;;;;;;13.50;11.50;;;;;15.70;72.22;100429.50;5070698;28;46433;-81
2021/10/02 06:01:24;;;;;;;;;23.25;19.75;;;;;15.73;72.14;100441.56;5067944;28;45662;-78
2021/10/02 06:03:50;;;;;;;;;9.75;8.25;;;;;15.65;72.11;100430.91;5030887;28;45655;-86
2021/10/02 06:06:15;;;;;;;;;9.50;8.25;;;;;15.62;72.09;100431.19;5078294;22;45218;-82
2021/10/02 06:08:41;;;;;;;;;7.25;7.25;;;;;15.69;72.58;100432.28;5066963;28;46415;-78
2021/10/02 06:11:07;;;;;;;;;9.75;9.00;;;;;15.70;72.49;100432.13;5066566;28;46626;-79
2021/10/02 06:13:35;;;;;;;;;11.75;9.25;;;;;15.72;72.33;100432.81;5066970;28;45657;-81
2021/10/02 06:16:00;;;;;;;;;8.00;7.75;;;;;15.73;72.33;100441.56;5068535;28;46557;-77
2021/10/02 06:18:26;;;;;;;;;7.00;7.00;;;;;15.72;72.36;100445.19;5063660;28;46748;-77
2021/10/02 06:20:52;;;;;;;;;5.00;4.00;;;;;15.67;72.34;100434.22;5054460;28;46390;-78
2021/10/02 06:23:18;;;;;;;;;8.50;5.00;;;;;15.71;72.40;100451.47;5067300;28;46031;-79
2021/10/02 06:25:44;;;;;;;;;5.50;4.50;;;;;15.68;72.33;100449.94;5057371;28;45500;-77
2021/10/02 06:28:09;;;;;;;;;6.00;4.25;;;;;15.69;72.20;100440.19;5065992;28;46619;-79
2021/10/02 06:30:35;;;;;;;;;3.75;3.75;;;;;15.63;72.26;100419.66;5072004;28;46170;-77
2021/10/02 06:33:00;;;;;;;;;7.00;5.00;;;;;15.66;72.35;100409.59;5069170;28;45621;-77
2021/10/02 06:35:25;;;;;;;;;2.75;2.75;;;;;15.63;72.29;100412.56;5071234;28;45634;-77
2021/10/02 06:37:51;;;;;;;;;3.00;3.00;;;;;15.58;72.36;100404.25;5066649;28;45663;-78
2021/10/02 06:40:17;;;;;;;;;3.00;3.00;;;;;15.62;72.18;100420.63;5074812;28;45388;-78
2021/10/02 06:42:48;;;;;;;;;3.50;2.50;;;;;15.65;72.38;100425.63;5068424;28;45668;-78
2021/10/02 06:45:14;;;;;;;;;4.00;3.50;;;;;15.62;72.29;100421.44;5063640;28;45923;-81
2021/10/02 06:47:39;;;;;;;;;2.00;2.00;;;;;15.55;72.27;100409.00;5028906;28;45953;-79
2021/10/02 06:50:08;;;;;;;;;4.75;4.00;;;;;15.46;72.34;100403.56;5066482;28;46875;-78
2021/10/02 06:52:34;;;;;;;;;5.00;3.75;;;;;15.63;72.21;100438.13;5065299;28;45410;-78
2021/10/02 06:55:00;;;;;;;;;7.00;5.00;;;;;15.56;72.22;100432.59;5056323;28;45555;-79
2021/10/02 06:57:28;;;;;;;;;8.25;6.50;;;;;15.59;72.28;100436.78;5061806;28;45759;-77
2021/10/02 06:59:55;;;;;;;;;8.50;6.50;;;;;15.58;72.25;100438.56;5063826;28;45986;-77
2021/10/02 07:02:21;;;;;;;;;4.75;3.75;;;;;15.57;72.01;100434.25;5063571;28;45919;-78
2021/10/02 07:04:49;;;;;;;;;5.00;4.00;;;;;15.50;72.12;100415.50;5061565;28;45296;-77
2021/10/02 07:07:15;;;;;;;;;3.75;3.25;;;;;15.54;72.06;100413.44;5067933;28;46531;-77
2021/10/02 07:09:41;;;;;;;;;5.00;3.25;;;;;15.47;72.03;100405.22;5070337;28;46293;-76
2021/10/02 07:12:07;;;;;;;;;3.50;2.00;;;;;15.51;71.89;100418.97;5068274;28;45968;-79
2021/10/02 07:14:32;;;;;;;;;3.50;2.75;;;;;15.53;72.04;100424.97;5051331;28;45879;-82
2021/10/02 07:16:58;;;;;;;;;3.50;3.00;;;;;15.53;72.08;100446.09;5067240;28;46324;-77
2021/10/02 07:19:23;;;;;;;;;6.00;3.00;;;;;15.45;72.02;100427.47;5069236;28;46098;-76
2021/10/02 07:21:49;;;;;;;;;3.75;3.25;;;;;15.52;72.22;100444.44;5056721;28;45613;-77
2021/10/02 07:24:19;;;;;;;;;5.00;3.00;;;;;15.51;71.86;100446.22;5053910;28;45586;-82
2021/10/02 07:26:46;;;;;;;;;3.50;3.00;;;;;15.46;71.94;100415.94;5044443;28;45763;-76
2021/10/02 07:29:12;;;;;;;;;3.75;3.25;;;;;15.53;71.79;100417.88;5051099;28;46133;-82
2021/10/02 07:31:38;;;;;;;;;4.00;3.00;;;;;15.45;71.68;100390.50;5057269;28;45707;-77
2021/10/02 07:34:05;;;;;;;;;3.50;3.00;;;;;15.55;71.74;100401.88;5048361;28;45677;-79
2021/10/02 07:36:30;;;;;;;;;6.00;5.00;;;;;15.57;71.73;100404.38;5048226;28;45619;-79
2021/10/02 07:38:57;;;;;;;;;4.00;3.00;;;;;15.59;71.72;100405.06;5049236;28;46832;-78
2021/10/02 07:41:24;;;;;;;;;7.75;5.75;;;;;15.59;71.86;100394.50;5064485;28;45807;-79
2021/10/02 07:44:03;;;;;;;;;7.50;5.75;;;;;15.63;71.77;100394.06;5059092;28;45854;-83
2021/10/02 07:46:30;;;;;;;;;3.50;2.75;;;;;15.65;71.49;100381.56;5098700;22;48021;-84
2021/10/02 07:48:56;;;;;;;;;2.00;2.00;;;;;15.63;71.69;100375.59;5058281;28;47406;-80
2021/10/02 07:51:24;;;;;;;;;4.00;3.00;;;;;15.60;71.33;100370.56;5048974;28;45726;-78
2021/10/02 07:53:51;;;;;;;;;3.00;2.25;;;;;15.69;71.52;100368.88;5056762;22;45577;-81
2021/10/02 07:56:18;;;;;;;;;3.00;2.00;;;;;15.66;71.32;100366.53;5047734;28;45852;-80
2021/10/02 07:58:50;;;;;;;;;2.50;2.00;;;;;15.71;71.29;100383.59;5061769;28;47293;-80
2021/10/02 08:01:16;;;;;;;;;3.00;2.00;;;;;15.70;71.19;100374.03;5060958;28;45768;-82
2021/10/02 08:03:42;;;;;;;;;2.00;2.00;;;;;15.69;71.04;100377.63;5044566;28;45830;-80
2021/10/02 08:06:08;;;;;;;;;2.00;2.00;;;;;15.68;71.04;100378.63;5045435;28;46088;-80
2021/10/02 08:08:34;;;;;;;;;4.50;3.50;;;;;15.64;70.96;100368.50;5051930;28;45994;-84
2021/10/02 08:11:00;;;;;;;;;2.50;2.00;;;;;15.70;70.81;100375.84;5051051;28;45704;-78
2021/10/02 08:13:26;;;;;;;;;3.00;3.00;;;;;15.72;70.84;100371.22;5046838;28;46423;-81
2021/10/02 08:15:59;;;;;;;;;4.75;4.00;;;;;15.72;70.92;100364.13;5026408;28;46227;-79
2021/10/02 08:18:27;;;;;;;;;4.50;3.00;;;;;15.72;70.92;100361.47;5040690;28;47115;-79
2021/10/02 08:20:54;;;;;;;;;3.00;2.00;;;;;15.76;70.57;100343.53;5051734;28;46081;-80
2021/10/02 08:23:23;;;;;;;;;3.00;3.00;;;;;15.75;70.72;100333.97;5023148;28;45772;-78
2021/10/02 08:25:51;;;;;;;;;7.00;6.25;;;;;15.81;70.59;100349.22;5031378;28;46712;-77
2021/10/02 08:28:17;;;;;;;;;4.00;3.00;;;;;15.79;70.41;100332.66;5013741;28;46427;-80
2021/10/02 08:30:45;;;;;;;;;4.25;4.00;;;;;15.67;70.47;100316.19;5030965;28;45876;-78
2021/10/02 08:33:11;;;;;;;;;5.00;4.25;;;;;15.85;70.43;100335.56;5045003;28;46501;-78
2021/10/02 08:35:37;;;;;;;;;5.50;4.50;;;;;15.76;70.52;100314.50;5045157;28;45661;-77
2021/10/02 08:38:03;;;;;;;;;5.00;4.00;;;;;15.87;70.60;100327.47;5036500;28;45676;-78
2021/10/02 08:40:28;;;;;;;;;5.00;4.75;;;;;15.85;70.57;100321.50;5039104;28;45769;-77
2021/10/02 08:42:54;;;;;;;;;2.75;2.50;;;;;15.87;70.46;100325.66;5039950;28;45823;-77
2021/10/02 08:45:21;;;;;;;;;4.00;3.00;;;;;15.90;70.03;100313.97;5033258;28;46519;-76
2021/10/02 08:47:47;;;;;;;;;4.75;4.00;;;;;15.92;70.37;100309.38;5038562;28;46076;-76
2021/10/02 08:50:17;;;;;;;;;6.75;3.50;;;;;15.93;70.11;100314.47;5034755;28;45763;-78
2021/10/02 08:52:44;;;;;;;;;4.00;3.00;;;;;15.89;69.98;100289.34;5046853;28;47291;-76
2021/10/02 08:55:12;;;;;;;;;5.50;4.00;;;;;15.95;69.84;100301.13;5037168;28;46642;-76
2021/10/02 08:57:38;;;;;;;;;3.50;2.75;;;;;16.00;70.09;100311.25;5034982;28;45836;-78
2021/10/02 09:00:10;;;;;;;;;4.25;3.00;;;;;16.01;69.94;100313.75;5033818;28;46223;-77
2021/10/02 09:02:36;;;;;;;;;4.00;3.00;;;;;16.00;69.94;100308.59;5037997;28;45782;-78
2021/10/02 09:05:06;;;;;;;;;4.00;4.00;;;;;16.02;69.85;100296.91;5042041;28;46433;-77
2021/10/02 09:07:32;;;;;;;;;3.25;3.00;;;;;16.01;69.65;100287.31;5030272;28;46215;-77
2021/10/02 09:10:01;;;;;;;;;4.00;3.50;;;;;16.05;69.86;100286.03;5035294;28;45735;-77
2021/10/02 09:12:27;;;;;;;;;6.00;5.25;;;;;16.07;69.60;100302.56;5035843;28;46667;-77
2021/10/02 09:14:53;;;;;;;;;4.50;4.50;;;;;16.09;69.58;100299.75;5031732;28;45689;-77
2021/10/02 09:17:19;;;;;;;;;7.00;5.00;;;;;16.08;69.74;100293.66;5041715;28;46385;-77
2021/10/02 09:19:45;;;;;;;;;8.25;6.75;;;;;16.08;69.67;100275.16;5042382;28;46862;-77
2021/10/02 09:22:12;;;;;;;;;6.25;6.00;;;;;16.14;69.55;100268.44;5041620;28;45942;-77
2021/10/02 09:24:42;;;;;;;;;5.00;4.25;;;;;16.18;69.66;100260.03;5024770;28;47219;-77
2021/10/02 09:27:16;;;;;;;;;3.00;2.25;;;;;16.16;69.48;100255.88;5031433;28;46938;-77
2021/10/02 09:29:50;;;;;;;;;4.00;3.00;;;;;16.22;69.57;100245.53;5048582;28;46128;-77
2021/10/02 09:32:18;;;;;;;;;3.00;2.50;;;;;16.26;69.50;100241.59;5043755;28;46233;-78
2021/10/02 09:34:52;;;;;;;;;4.00;3.50;;;;;16.30;69.26;100236.84;5044986;28;45787;-77
2021/10/02 09:37:29;;;;;;;;;6.00;4.00;;;;;16.33;69.21;100228.59;5036419;28;47427;-78
2021/10/02 09:40:00;;;;;;;;;4.25;3.50;;;;;16.35;69.26;100216.88;5039499;28;45767;-77
2021/10/02 09:42:27;;;;;;;;;6.50;4.00;;;;;16.42;69.17;100203.00;5035836;28;45837;-77
2021/10/02 09:44:57;;;;;;;;;5.00;4.75;;;;;16.45;69.05;100200.06;5046922;28;46392;-76
2021/10/02 09:47:22;;;;;;;;;6.00;5.00;;;;;16.51;68.90;100192.34;5046112;28;47134;-79
2021/10/02 09:49:47;;;;;;;;;4.00;4.00;;;;;16.51;68.98;100175.66;5027736;28;45689;-76
2021/10/02 09:52:32;;;;;;;;;5.00;4.75;;;;;16.62;69.12;100184.16;5043677;28;46258;-77
2021/10/02 09:54:59;;;;;;;;;3.50;2.25;;;;;16.67;69.17;100171.28;5050334;28;47011;-77
2021/10/02 09:57:24;;;;;;;;;3.50;2.75;;;;;16.75;68.71;100162.53;5051563;28;46681;-76
2021/10/02 09:59:50;;;;;;;;;2.75;2.25;;;;;16.80;68.58;100139.09;5050331;28;45698;-78
2021/10/02 10:02:20;;;;;;;;;4.25;2.75;;;;;16.87;68.74;100129.53;5051438;28;45972;-77
2021/10/02 10:04:53;;;;;;;;;3.75;3.00;;;;;16.92;68.52;100129.88;5049240;28;45726;-78
2021/10/02 10:07:19;;;;;;;;;3.00;2.50;;;;;17.02;68.37;100116.47;5048252;28;45711;-77
2021/10/02 10:10:22;;;;;;;;;3.00;3.00;;;;;17.08;68.18;100111.38;5046188;28;45779;-78
2021/10/02 10:12:47;;;;;;;;;3.50;2.00;;;;;17.16;67.91;100108.75;5046598;28;45941;-77
2021/10/02 10:15:33;;;;;;;;;2.25;2.00;;;;;17.24;67.90;100109.72;5051383;28;47365;-78
2021/10/02 10:17:59;;;;;;;;;2.00;2.00;;;;;17.30;67.85;100103.78;5044532;28;46104;-76
2021/10/02 10:20:36;;;;;;;;;2.25;2.00;;;;;17.36;67.88;100106.59;5032543;28;45777;-79
2021/10/02 10:23:02;;;;;;;;;1.00;0.00;;;;;17.38;67.57;100088.72;5030128;28;45930;-78
2021/10/02 10:25:29;;;;;;;;;3.00;2.00;;;;;17.48;68.01;100086.75;5049199;28;46341;-79
2021/10/02 10:27:58;;;;;;;;;2.25;1.75;;;;;17.50;67.26;100068.84;5044285;28;45984;-78
2021/10/02 10:30:26;;;;;;;;;2.00;2.00;;;;;17.59;67.25;100065.25;5026950;28;45839;-78
2021/10/02 10:33:08;;;;;;;;;2.00;2.00;;;;;17.63;67.61;100068.38;5047896;28;46312;-78
2021/10/02 10:35:38;;;;;;;;;3.50;3.50;;;;;17.70;67.44;100060.59;5046857;28;46789;-78
2021/10/02 10:38:05;;;;;;;;;4.00;3.00;;;;;17.74;67.02;100073.34;5046967;28;46401;-79
2021/10/02 10:40:31;;;;;;;;;2.25;2.00;;;;;17.71;67.18;100067.53;5057743;28;46074;-79
2021/10/02 10:42:57;;;;;;;;;2.00;2.00;;;;;17.84;67.09;100081.09;5047825;28;46774;-78
2021/10/02 10:45:23;;;;;;;;;6.50;5.50;;;;;17.86;66.57;100065.88;5024332;28;48147;-77
2021/10/02 10:47:51;;;;;;;;;3.00;3.00;;;;;17.84;66.54;100060.72;5041466;28;47047;-77
2021/10/02 10:50:16;;;;;;;;;5.50;4.00;;;;;17.90;66.58;100060.06;5033161;28;46112;-78
2021/10/02 10:52:45;;;;;;;;;48.75;41.50;;;;;17.97;66.52;100052.25;5032370;28;45850;-77
2021/10/02 10:55:17;;;;;;;;;16.75;14.00;;;;;18.01;66.07;100049.09;5042175;28;47001;-78
2021/10/02 10:57:52;;;;;;;;;9.00;8.25;;;;;18.06;66.45;100053.06;5037899;28;47508;-78
2021/10/02 11:00:42;;;;;;;;;8.00;8.00;;;;;18.06;65.78;100034.50;5047522;28;45741;-77
2021/10/02 11:03:10;;;;;;;;;7.25;5.00;;;;;18.13;65.75;100027.53;5049996;28;45997;-81
2021/10/02 11:05:35;;;;;;;;;10.00;10.00;;;;;18.15;65.64;100026.34;5034391;28;46509;-78
2021/10/02 11:08:05;;;;;;;;;29.25;27.75;;;;;18.18;65.65;100033.13;5047730;28;45901;-78
2021/10/02 11:10:48;;;;;;;;;12.25;11.00;;;;;18.20;65.80;100013.38;5045760;28;45788;-78
2021/10/02 11:13:13;;;;;;;;;6.50;5.75;;;;;18.22;65.10;100006.09;5041635;28;45712;-78
2021/10/02 11:15:40;;;;;;;;;26.00;25.00;;;;;18.24;65.38;100016.53;5031946;28;46168;-77
2021/10/02 11:18:45;;;;;;;;;8.00;7.00;;;;;18.26;65.04;100006.56;5039591;28;47041;-77
2021/10/02 11:21:16;;;;;;;;;7.00;7.00;;;;;18.28;65.54;100005.41;5032581;28;46039;-77
2021/10/02 11:23:54;;;;;;;;;15.25;13.25;;;;;18.30;65.30;99995.44;5036022;28;46143;-78
2021/10/02 11:26:26;;;;;;;;;7.75;6.25;;;;;18.34;64.90;99988.81;5033513;28;45913;-78
2021/10/02 11:28:57;;;;;;;;;7.00;7.00;;;;;18.35;65.10;99986.97;5043038;28;46072;-78
2021/10/02 11:31:24;;;;;;;;;6.00;5.25;;;;;18.37;64.80;99979.66;5036584;28;45879;-80
2021/10/02 11:33:49;;;;;;;;;4.25;4.25;;;;;18.38;64.97;99979.50;5045468;28;45736;-79
2021/10/02 11:36:32;;;;;;;;;5.00;4.75;;;;;18.40;65.27;99969.53;5045586;28;46618;-78
2021/10/02 11:39:13;;;;;;;;;7.75;6.25;;;;;18.43;65.06;99963.03;5047057;28;45862;-78
2021/10/02 11:41:46;;;;;;;;;6.75;5.75;;;;;18.45;65.01;99950.44;5040315;28;45727;-82
2021/10/02 11:44:19;;;;;;;;;6.00;5.25;;;;;18.47;65.12;99953.72;5040720;28;45801;-83
2021/10/02 11:46:44;;;;;;;;;11.25;9.50;;;;;18.50;65.33;99929.50;5037831;28;45751;-83
2021/10/02 11:49:19;;;;;;;;;4.50;2.50;;;;;18.53;65.17;99925.66;5022830;28;47239;-82
2021/10/02 11:52:08;;;;;;;;;8.75;6.00;;;;;18.55;64.87;99918.41;5019383;28;45953;-82
2021/10/02 11:54:34;;;;;;;;;23.50;22.00;;;;;18.57;64.96;99921.72;5063230;28;45998;-80
2021/10/02 11:57:14;;;;;;;;;5.75;5.00;;;;;18.57;64.92;99911.09;5044819;28;46549;-80
2021/10/02 11:59:45;;;;;;;;;6.25;5.50;;;;;18.57;64.79;99903.13;5045402;28;46300;-81
2021/10/02 12:02:12;;;;;;;;;2.25;2.00;;;;;18.43;64.89;99870.19;5045806;28;45732;-81
2021/10/02 12:04:39;;;;;;;;;5.00;2.75;;;;;18.51;64.65;99886.06;5024734;28;45686;-81
2021/10/02 12:07:05;;;;;;;;;3.50;3.00;;;;;18.52;64.71;99879.75;5039951;28;46851;-81
2021/10/02 12:09:31;;;;;;;;;2.50;2.50;;;;;18.50;64.98;99859.72;5047302;28;45754;-80
2021/10/02 12:11:58;;;;;;;;;8.00;7.75;;;;;18.50;64.39;99849.09;5057673;28;46964;-79
2021/10/02 12:14:27;;;;;;;;;8.75;8.00;;;;;18.56;64.68;99854.56;5057667;28;46148;-78
2021/10/02 12:17:02;;;;;;;;;8.75;8.00;;;;;18.56;64.89;99854.56;5046145;28;45993;-78
2021/10/02 12:19:29;;;;;;;;;6.25;5.50;;;;;18.56;64.97;99854.56;5048181;28;46071;-80
2021/10/02 12:22:00;;;;;;;;;6.00;6.00;;;;;18.55;64.63;99846.75;5050024;28;45784;-79